createdAt,value
2023-03-23T00:00:14.487Z,37.78
2023-03-23T00:02:19.846Z,37.86
2023-03-23T00:04:28.164Z,37.84
2023-03-23T00:06:34.183Z,37.97
2023-03-23T00:08:46.211Z,38.11
2023-03-23T00:10:53.548Z,37.93
2023-03-23T00:12:58.928Z,37.98
2023-03-23T00:15:04.657Z,37.91
2023-03-23T00:17:11.066Z,38.06
2023-03-23T00:19:16.960Z,38.20
2023-03-23T00:21:22.081Z,38.11
2023-03-23T00:23:29.893Z,38.43
2023-03-23T00:25:37.347Z,38.23
2023-03-23T00:27:42.249Z,38.25
2023-03-23T00:29:49.012Z,38.33
2023-03-23T00:31:57.763Z,38.18
2023-03-23T00:34:05.143Z,38.54
2023-03-23T00:36:12.389Z,38.44
2023-03-23T00:38:17.230Z,38.49
2023-03-23T00:40:22.193Z,38.74
2023-03-23T00:42:29.732Z,38.72
2023-03-23T00:44:37.472Z,38.81
2023-03-23T00:46:46.260Z,38.56
2023-03-23T00:48:51.734Z,38.91
2023-03-23T00:50:57.063Z,38.59
2023-03-23T00:53:02.305Z,38.70
2023-03-23T00:55:08.549Z,38.82
2023-03-23T00:57:13.508Z,38.96
2023-03-23T00:59:21.254Z,39.12
2023-03-23T01:01:26.204Z,39.00
2023-03-23T01:03:31.216Z,39.15
2023-03-23T01:05:39.323Z,39.13
2023-03-23T01:07:45.456Z,39.24
2023-03-23T01:09:50.632Z,38.95
2023-03-23T01:11:57.423Z,39.41
2023-03-23T01:14:03.015Z,39.06
2023-03-23T01:16:10.819Z,39.40
2023-03-23T01:18:15.777Z,39.18
2023-03-23T01:20:20.716Z,39.27
2023-03-23T01:22:26.186Z,39.69
2023-03-23T01:24:31.350Z,39.49
2023-03-23T01:26:37.053Z,39.65
2023-03-23T01:28:42.798Z,39.68
2023-03-23T01:30:47.736Z,39.53
2023-03-23T01:32:55.666Z,39.85
2023-03-23T01:35:02.323Z,39.92
2023-03-23T01:37:07.438Z,39.84
2023-03-23T01:39:12.980Z,39.90
2023-03-23T01:41:21.956Z,40.05
2023-03-23T01:43:27.159Z,39.65
2023-03-23T01:45:35.948Z,39.91
2023-03-23T01:47:41.582Z,39.83
2023-03-23T01:49:52.434Z,40.16
2023-03-23T01:52:01.459Z,40.09
2023-03-23T01:54:08.534Z,40.34
2023-03-23T01:56:15.123Z,40.34
2023-03-23T01:58:26.689Z,40.37
2023-03-23T02:00:31.733Z,40.35
2023-03-23T02:02:39.504Z,40.39
2023-03-23T02:04:45.568Z,40.34
2023-03-23T02:06:53.671Z,40.14
2023-03-23T02:09:10.529Z,40.04
2023-03-23T02:11:22.148Z,40.31
2023-03-23T02:13:28.705Z,40.40
2023-03-23T02:15:47.454Z,40.28
2023-03-23T02:17:58.410Z,40.27
2023-03-23T02:20:16.932Z,40.47
2023-03-23T02:22:51.371Z,40.24
2023-03-23T02:25:01.421Z,40.53
2023-03-23T02:27:10.335Z,40.33
2023-03-23T02:29:47.270Z,40.58
2023-03-23T02:32:09.541Z,40.60
2023-03-23T02:34:22.303Z,40.37
2023-03-23T02:36:32.399Z,40.11
2023-03-23T02:38:51.917Z,40.20
2023-03-23T02:41:01.277Z,40.31
2023-03-23T02:43:11.372Z,40.65
2023-03-23T02:45:19.861Z,40.54
2023-03-23T02:47:27.740Z,40.43
2023-03-23T02:49:38.782Z,40.85
2023-03-23T02:51:44.447Z,40.62
2023-03-23T02:53:51.857Z,40.54
2023-03-23T02:55:59.045Z,40.67
2023-03-23T02:58:07.608Z,40.79
2023-03-23T03:00:19.821Z,40.73
2023-03-23T03:02:27.353Z,40.92
2023-03-23T03:04:37.807Z,40.62
2023-03-23T03:06:54.438Z,40.72
2023-03-23T03:09:09.075Z,40.62
2023-03-23T03:11:16.447Z,41.01
2023-03-23T03:13:34.140Z,41.10
2023-03-23T03:15:48.075Z,41.04
2023-03-23T03:17:59.992Z,41.27
2023-03-23T03:20:11.711Z,41.02
2023-03-23T03:22:18.268Z,41.23
2023-03-23T03:24:26.203Z,41.08
2023-03-23T03:26:32.968Z,41.43
2023-03-23T03:28:54.329Z,41.36
2023-03-23T03:31:01.899Z,41.54
2023-03-23T03:33:07.448Z,41.30
2023-03-23T03:35:15.649Z,41.38
2023-03-23T03:37:22.461Z,41.34
2023-03-23T03:39:30.692Z,41.73
2023-03-23T03:41:35.689Z,41.71
2023-03-23T03:43:41.046Z,41.64
2023-03-23T03:45:46.359Z,41.46
2023-03-23T03:47:51.827Z,41.72
2023-03-23T03:49:56.757Z,41.81
2023-03-23T03:52:05.456Z,41.53
2023-03-23T03:54:19.108Z,41.64
2023-03-23T03:56:24.221Z,41.58
2023-03-23T03:58:43.642Z,41.61
2023-03-23T04:01:03.564Z,41.85
2023-03-23T04:03:13.217Z,41.44
2023-03-23T04:05:26.080Z,41.68
2023-03-23T04:07:33.544Z,41.61
2023-03-23T04:09:47.083Z,41.80
2023-03-23T04:11:56.601Z,41.63
2023-03-23T04:14:20.407Z,41.92
2023-03-23T04:16:27.408Z,42.24
2023-03-23T04:18:33.311Z,41.94
2023-03-23T04:20:39.108Z,42.27
2023-03-23T04:22:50.213Z,42.16
2023-03-23T04:24:57.740Z,42.29
2023-03-23T04:27:04.517Z,42.27
2023-03-23T04:29:09.743Z,42.26
2023-03-23T04:31:16.029Z,42.31
2023-03-23T04:33:27.350Z,42.30
2023-03-23T04:35:54.303Z,42.43
2023-03-23T04:38:21.506Z,42.06
2023-03-23T04:40:31.649Z,42.34
2023-03-23T04:42:58.749Z,42.52
2023-03-23T04:45:22.809Z,42.59
2023-03-23T04:47:31.861Z,42.50
2023-03-23T04:49:39.316Z,42.48
2023-03-23T04:51:57.721Z,42.64
2023-03-23T04:54:23.269Z,42.55
2023-03-23T04:56:32.300Z,42.75
2023-03-23T04:58:45.003Z,42.60
2023-03-23T05:01:08.900Z,42.75
2023-03-23T05:03:23.596Z,42.92
2023-03-23T05:05:33.171Z,42.87
2023-03-23T05:07:44.133Z,42.82
2023-03-23T05:09:54.075Z,43.26
2023-03-23T05:12:01.902Z,43.17
2023-03-23T05:14:07.866Z,43.15
2023-03-23T05:16:13.154Z,42.91
2023-03-23T05:18:21.456Z,42.98
2023-03-23T05:20:27.018Z,43.18
2023-03-23T05:22:39.405Z,43.30
2023-03-23T05:24:46.429Z,43.09
2023-03-23T05:26:54.107Z,43.12
2023-03-23T05:29:04.973Z,43.37
2023-03-23T05:31:21.646Z,43.12
2023-03-23T05:33:27.072Z,43.26
2023-03-23T05:35:39.151Z,43.52
2023-03-23T05:37:44.979Z,43.25
2023-03-23T05:39:54.421Z,43.35
2023-03-23T05:42:31.349Z,43.58
2023-03-23T05:44:46.642Z,43.59
2023-03-23T05:46:51.685Z,43.24
2023-03-23T05:48:57.153Z,43.46
2023-03-23T05:51:09.760Z,43.32
2023-03-23T05:53:18.108Z,43.43
2023-03-23T05:55:23.120Z,43.60
2023-03-23T05:57:40.366Z,43.77
2023-03-23T05:59:53.391Z,43.46
2023-03-23T06:02:01.758Z,43.50
2023-03-23T06:04:07.531Z,43.71
2023-03-23T06:06:22.834Z,43.55
2023-03-23T06:08:38.208Z,43.53
2023-03-23T06:10:43.579Z,43.92
2023-03-23T06:12:54.220Z,43.91
2023-03-23T06:15:19.557Z,43.69
2023-03-23T06:17:43.274Z,43.92
2023-03-23T06:19:51.878Z,43.73
2023-03-23T06:21:58.229Z,43.82
2023-03-23T06:24:18.632Z,43.56
2023-03-23T06:26:26.334Z,43.85
2023-03-23T06:28:39.391Z,43.91
2023-03-23T06:30:44.928Z,43.76
2023-03-23T06:32:50.073Z,43.91
2023-03-23T06:34:59.583Z,43.78
2023-03-23T06:37:28.035Z,43.82
2023-03-23T06:39:40.819Z,43.83
2023-03-23T06:41:58.017Z,43.80
2023-03-23T06:44:05.629Z,43.50
2023-03-23T06:46:12.109Z,43.71
2023-03-23T06:48:19.779Z,43.29
2023-03-23T06:50:25.272Z,43.54
2023-03-23T06:52:30.491Z,43.45
2023-03-23T06:54:35.485Z,43.34
2023-03-23T06:56:41.786Z,43.58
2023-03-23T06:58:49.402Z,43.38
2023-03-23T07:01:02.278Z,43.48
2023-03-23T07:03:16.212Z,43.42
2023-03-23T07:05:22.181Z,43.38
2023-03-23T07:07:29.084Z,43.58
2023-03-23T07:09:48.619Z,43.81
2023-03-23T07:11:57.788Z,43.81
2023-03-23T07:14:12.988Z,43.95
2023-03-23T07:16:21.790Z,43.91
2023-03-23T07:18:26.819Z,44.37
2023-03-23T07:20:32.795Z,44.15
2023-03-23T07:22:38.049Z,44.15
2023-03-23T07:24:51.113Z,44.27
2023-03-23T07:27:02.569Z,44.42
2023-03-23T07:29:08.444Z,44.58
2023-03-23T07:31:22.041Z,44.53
2023-03-23T07:33:27.382Z,44.69
2023-03-23T07:35:34.893Z,44.41
2023-03-23T07:37:43.128Z,44.35
2023-03-23T07:39:48.032Z,44.40
2023-03-23T07:41:54.140Z,44.38
2023-03-23T07:44:12.085Z,44.37
2023-03-23T07:46:22.220Z,44.09
2023-03-23T07:48:49.258Z,44.25
2023-03-23T07:50:55.141Z,43.83
2023-03-23T07:53:02.120Z,44.19
2023-03-23T07:55:13.018Z,44.08
2023-03-23T07:57:30.752Z,44.14
2023-03-23T07:59:36.529Z,43.78
2023-03-23T08:01:45.376Z,43.65
2023-03-23T08:04:08.799Z,43.61
2023-03-23T08:06:37.143Z,43.48
2023-03-23T08:08:58.146Z,43.01
2023-03-23T08:11:22.374Z,43.47
2023-03-23T08:13:51.293Z,42.60
2023-03-23T08:15:58.853Z,42.89
2023-03-23T08:18:18.552Z,42.36
2023-03-23T08:20:55.535Z,42.31
2023-03-23T08:23:10.517Z,42.53
2023-03-23T08:25:32.374Z,42.58
2023-03-23T08:27:56.132Z,42.68
2023-03-23T08:30:15.318Z,42.40
2023-03-23T08:32:32.764Z,42.46
2023-03-23T08:34:55.830Z,42.77
2023-03-23T08:37:20.782Z,42.51
2023-03-23T08:39:44.368Z,42.59
2023-03-23T08:42:06.220Z,42.57
2023-03-23T08:44:23.298Z,42.49
2023-03-23T08:46:50.830Z,42.46
2023-03-23T08:49:14.253Z,42.81
2023-03-23T08:51:34.815Z,42.35
2023-03-23T08:54:07.098Z,42.58
2023-03-23T08:56:41.294Z,42.26
2023-03-23T08:59:04.188Z,42.30
2023-03-23T09:01:14.548Z,42.18
2023-03-23T09:03:22.165Z,42.05
2023-03-23T09:05:49.781Z,42.13
2023-03-23T09:08:00.006Z,42.05
2023-03-23T09:10:05.169Z,42.16
2023-03-23T09:12:10.594Z,42.05
2023-03-23T09:14:15.656Z,41.92
2023-03-23T09:16:20.444Z,41.96
2023-03-23T09:18:25.865Z,41.71
2023-03-23T09:20:32.321Z,41.93
2023-03-23T09:22:37.171Z,41.66
2023-03-23T09:24:44.977Z,41.37
2023-03-23T09:26:49.772Z,41.02
2023-03-23T09:28:54.716Z,40.85
2023-03-23T09:31:00.401Z,41.02
2023-03-23T09:33:05.957Z,41.04
2023-03-23T09:35:13.719Z,40.77
2023-03-23T09:37:18.835Z,40.76
2023-03-23T09:39:23.639Z,40.64
2023-03-23T09:41:53.414Z,40.74
2023-03-23T09:44:07.687Z,40.04
2023-03-23T09:46:25.375Z,40.06
2023-03-23T09:48:45.049Z,40.30
2023-03-23T09:50:55.624Z,39.73
2023-03-23T09:53:04.655Z,39.59
2023-03-23T09:55:15.789Z,39.33
2023-03-23T09:57:28.654Z,38.99
2023-03-23T09:59:38.075Z,38.88
2023-03-23T10:01:46.254Z,38.59
2023-03-23T10:03:52.555Z,37.85
2023-03-23T10:05:59.309Z,37.90
2023-03-23T10:08:06.785Z,37.43
2023-03-23T10:10:18.826Z,37.25
2023-03-23T10:12:33.073Z,37.34
2023-03-23T10:14:51.307Z,36.99
2023-03-23T10:17:04.659Z,36.60
2023-03-23T10:19:16.545Z,36.14
2023-03-23T10:21:25.653Z,36.35
2023-03-23T10:23:50.083Z,36.17
2023-03-23T10:25:59.618Z,35.97
2023-03-23T10:28:13.581Z,35.62
2023-03-23T10:30:23.150Z,35.73
2023-03-23T10:32:50.592Z,35.68
2023-03-23T10:34:59.858Z,35.69
2023-03-23T10:37:09.496Z,35.61
2023-03-23T10:39:18.375Z,35.37
2023-03-23T10:41:25.612Z,35.26
2023-03-23T10:43:34.495Z,35.13
2023-03-23T10:45:44.182Z,34.95
2023-03-23T10:47:56.873Z,35.26
2023-03-23T10:50:06.467Z,35.06
2023-03-23T10:52:22.555Z,35.12
2023-03-23T10:54:36.221Z,35.35
2023-03-23T10:56:58.127Z,35.32
2023-03-23T10:59:15.807Z,35.30
2023-03-23T11:01:23.229Z,35.67
2023-03-23T11:03:45.339Z,35.35
2023-03-23T11:05:54.364Z,35.47
2023-03-23T11:08:01.290Z,35.34
2023-03-23T11:10:26.943Z,35.32
2023-03-23T11:12:37.552Z,35.56
2023-03-23T11:14:45.980Z,35.51
2023-03-23T11:16:59.415Z,35.67
2023-03-23T11:19:17.601Z,35.14
2023-03-23T11:21:24.641Z,35.19
2023-03-23T11:23:32.991Z,35.59
2023-03-23T11:25:37.838Z,35.35
2023-03-23T11:27:44.384Z,35.23
2023-03-23T11:29:58.587Z,35.54
2023-03-23T11:32:09.724Z,35.26
2023-03-23T11:34:19.527Z,35.47
2023-03-23T11:36:25.018Z,35.10
2023-03-23T11:38:31.288Z,35.55
2023-03-23T11:40:36.852Z,35.10
2023-03-23T11:42:47.000Z,35.19
2023-03-23T11:44:54.428Z,34.91
2023-03-23T11:47:07.278Z,35.34
2023-03-23T11:49:25.743Z,35.04
2023-03-23T11:51:38.621Z,35.12
2023-03-23T11:53:51.248Z,34.83
2023-03-23T11:56:04.250Z,34.88
2023-03-23T11:58:16.907Z,34.72
2023-03-23T12:00:26.801Z,35.03
2023-03-23T12:02:46.697Z,34.77
2023-03-23T12:05:11.505Z,35.06
2023-03-23T12:07:51.790Z,34.90
2023-03-23T12:10:07.020Z,34.75
2023-03-23T12:12:20.667Z,35.05
2023-03-23T12:14:38.177Z,34.67
2023-03-23T12:17:05.370Z,34.63
2023-03-23T12:19:20.461Z,35.04
2023-03-23T12:21:34.213Z,34.89
2023-03-23T12:23:47.725Z,34.36
2023-03-23T12:26:19.505Z,34.59
2023-03-23T12:28:37.264Z,34.44
2023-03-23T12:30:49.525Z,34.05
2023-03-23T12:33:09.914Z,34.15
2023-03-23T12:35:27.432Z,33.88
2023-03-23T12:37:47.033Z,34.13
2023-03-23T12:40:10.718Z,33.67
2023-03-23T12:42:26.979Z,34.03
2023-03-23T12:44:38.949Z,33.83
2023-03-23T12:46:55.497Z,33.95
2023-03-23T12:49:09.500Z,33.77
2023-03-23T12:51:25.173Z,33.86
2023-03-23T12:53:32.998Z,33.90
2023-03-23T12:55:45.584Z,33.73
2023-03-23T12:57:58.848Z,33.55
2023-03-23T13:00:13.095Z,33.65
2023-03-23T13:02:24.349Z,33.27
2023-03-23T13:04:37.401Z,33.88
2023-03-23T13:06:43.462Z,34.35
2023-03-23T13:08:54.664Z,33.74
2023-03-23T13:11:04.469Z,33.66
2023-03-23T13:13:21.431Z,33.79
2023-03-23T13:15:35.391Z,33.31
2023-03-23T13:17:48.864Z,33.67
2023-03-23T13:20:23.266Z,33.64
2023-03-23T13:22:35.004Z,33.49
2023-03-23T13:24:45.383Z,33.98
2023-03-23T13:26:53.281Z,33.51
2023-03-23T13:29:03.081Z,33.89
2023-03-23T13:31:17.427Z,33.71
2023-03-23T13:33:22.416Z,33.66
2023-03-23T13:35:29.941Z,33.49
2023-03-23T13:37:35.180Z,33.62
2023-03-23T13:39:42.429Z,33.25
2023-03-23T13:41:52.871Z,33.33
2023-03-23T13:44:09.852Z,33.79
2023-03-23T13:46:32.896Z,33.56
2023-03-23T13:48:49.502Z,33.23
2023-03-23T13:51:29.966Z,33.30
2023-03-23T13:53:54.916Z,33.19
2023-03-23T13:56:18.129Z,33.10
2023-03-23T13:58:31.682Z,33.17
2023-03-23T14:00:53.061Z,33.21
2023-03-23T14:03:09.046Z,33.40
2023-03-23T14:08:00.894Z,33.53
2023-03-23T14:10:11.086Z,33.45
2023-03-23T14:12:21.891Z,33.75
2023-03-23T14:14:33.682Z,33.86
2023-03-23T14:16:43.452Z,33.59
2023-03-23T14:18:56.380Z,33.50
2023-03-23T14:21:03.178Z,33.59
2023-03-23T14:23:18.887Z,33.51
2023-03-23T14:25:25.348Z,33.68
2023-03-23T14:27:30.805Z,33.94
2023-03-23T14:29:36.030Z,33.82
2023-03-23T14:31:41.745Z,33.88
2023-03-23T14:33:46.662Z,34.05
2023-03-23T14:35:51.638Z,33.93
2023-03-23T14:37:56.894Z,34.00
2023-03-23T14:40:07.043Z,33.67
2023-03-23T14:42:16.911Z,33.75
2023-03-23T14:44:26.916Z,33.77
2023-03-23T14:46:33.708Z,33.69
2023-03-23T14:48:39.729Z,33.72
2023-03-23T14:50:46.502Z,33.41
2023-03-23T14:52:52.478Z,33.55
2023-03-23T14:54:57.669Z,33.78
2023-03-23T14:57:14.371Z,33.65
2023-03-23T14:59:19.363Z,33.97
2023-03-23T15:01:28.365Z,33.62
2023-03-23T15:03:39.416Z,33.77
2023-03-23T15:05:50.126Z,33.90
2023-03-23T15:07:59.254Z,34.04
2023-03-23T15:10:04.392Z,33.80
2023-03-23T15:12:24.793Z,33.56
2023-03-23T15:14:33.182Z,33.61
2023-03-23T15:16:42.634Z,33.61
2023-03-23T15:18:54.935Z,33.46
2023-03-23T15:20:59.871Z,33.93
2023-03-23T15:23:10.737Z,33.87
2023-03-23T15:25:22.142Z,33.59
2023-03-23T15:27:36.783Z,33.76
2023-03-23T15:29:51.223Z,33.67
2023-03-23T15:31:58.854Z,33.62
2023-03-23T15:34:08.530Z,33.49
2023-03-23T15:36:19.810Z,33.49
2023-03-23T15:38:26.840Z,34.06
2023-03-23T15:40:37.486Z,33.71
2023-03-23T15:42:45.695Z,33.63
2023-03-23T15:45:00.161Z,34.09
2023-03-23T15:47:18.353Z,33.84
2023-03-23T15:49:24.695Z,34.23
2023-03-23T15:51:31.447Z,34.31
2023-03-23T15:53:39.266Z,34.10
2023-03-23T15:55:44.363Z,34.09
2023-03-23T15:57:53.056Z,34.03
2023-03-23T15:59:57.892Z,34.24
2023-03-23T16:02:02.719Z,34.18
2023-03-23T16:04:10.711Z,34.07
2023-03-23T16:06:25.324Z,34.20
2023-03-23T16:08:30.807Z,34.53
2023-03-23T16:10:35.660Z,34.60
2023-03-23T16:12:40.714Z,34.23
2023-03-23T16:14:48.191Z,34.52
2023-03-23T16:16:54.397Z,34.77
2023-03-23T16:18:59.642Z,34.56
2023-03-23T16:21:04.458Z,34.70
2023-03-23T16:23:09.297Z,34.47
2023-03-23T16:25:14.974Z,34.52
2023-03-23T16:27:21.696Z,34.54
2023-03-23T16:29:40.592Z,34.63
2023-03-23T16:31:54.037Z,34.77
2023-03-23T16:33:58.923Z,34.66
2023-03-23T16:36:04.031Z,34.49
2023-03-23T16:38:09.949Z,34.57
2023-03-23T16:40:16.329Z,34.88
2023-03-23T16:42:21.186Z,35.03
2023-03-23T16:44:26.269Z,34.68
2023-03-23T16:46:31.365Z,34.78
2023-03-23T16:48:40.829Z,34.82
2023-03-23T16:50:46.855Z,34.80
2023-03-23T16:52:51.659Z,35.09
2023-03-23T16:54:56.544Z,35.08
2023-03-23T16:57:01.433Z,34.97
2023-03-23T16:59:06.369Z,34.56
2023-03-23T17:01:12.202Z,34.86
2023-03-23T17:03:17.191Z,34.77
2023-03-23T17:05:26.818Z,34.91
2023-03-23T17:07:31.792Z,35.09
2023-03-23T17:09:37.139Z,34.80
2023-03-23T17:11:42.117Z,35.32
2023-03-23T17:13:46.953Z,35.32
2023-03-23T17:15:56.749Z,35.14
2023-03-23T17:18:02.091Z,35.41
2023-03-23T17:20:08.264Z,34.96
2023-03-23T17:22:15.724Z,35.15
2023-03-23T17:24:21.197Z,34.94
2023-03-23T17:26:26.021Z,35.13
2023-03-23T17:28:30.843Z,35.25
2023-03-23T17:30:36.152Z,35.24
2023-03-23T17:32:41.169Z,35.01
2023-03-23T17:34:46.218Z,35.27
2023-03-23T17:36:51.068Z,35.56
2023-03-23T17:38:58.481Z,35.27
2023-03-23T17:41:08.043Z,35.19
2023-03-23T17:43:12.915Z,35.29
2023-03-23T17:45:17.924Z,35.61
2023-03-23T17:47:24.060Z,35.26
2023-03-23T17:49:30.492Z,35.29
2023-03-23T17:51:35.574Z,35.42
2023-03-23T17:53:40.448Z,35.63
2023-03-23T17:55:48.663Z,35.38
2023-03-23T17:57:53.588Z,35.72
2023-03-23T17:59:58.531Z,35.52
2023-03-23T18:02:03.494Z,35.96
2023-03-23T18:04:08.342Z,35.92
2023-03-23T18:06:13.680Z,36.08
2023-03-23T18:08:18.480Z,35.85
2023-03-23T18:10:23.517Z,36.40
2023-03-23T18:12:31.658Z,36.14
2023-03-23T18:14:38.606Z,36.37
2023-03-23T18:16:43.402Z,36.27
2023-03-23T18:18:48.609Z,36.41
2023-03-23T18:20:57.548Z,36.79
2023-03-23T18:23:03.794Z,36.48
2023-03-23T18:25:09.400Z,36.80
2023-03-23T18:27:14.460Z,37.19
2023-03-23T18:29:21.970Z,37.00
2023-03-23T18:31:27.221Z,36.88
2023-03-23T18:33:32.022Z,37.26
2023-03-23T18:35:36.896Z,37.08
2023-03-23T18:37:43.731Z,37.02
2023-03-23T18:39:48.680Z,37.14
2023-03-23T18:41:53.519Z,37.31
2023-03-23T18:43:59.100Z,37.29
2023-03-23T18:46:07.083Z,37.35
2023-03-23T18:48:12.434Z,37.79
2023-03-23T18:50:18.413Z,37.57
2023-03-23T18:52:26.256Z,37.38
2023-03-23T18:54:33.645Z,37.42
2023-03-23T18:56:38.724Z,37.62
2023-03-23T18:58:43.644Z,37.70
2023-03-23T19:00:50.154Z,37.90
2023-03-23T19:02:58.213Z,38.07
2023-03-23T19:05:06.120Z,37.69
2023-03-23T19:07:11.079Z,38.13
2023-03-23T19:09:15.951Z,37.96
2023-03-23T19:11:21.214Z,38.26
2023-03-23T19:13:26.406Z,37.82
2023-03-23T19:15:31.422Z,37.94
2023-03-23T19:17:36.278Z,38.22
2023-03-23T19:19:44.991Z,38.51
2023-03-23T19:21:50.049Z,38.30
2023-03-23T19:23:55.074Z,38.60
2023-03-23T19:26:00.425Z,38.45
2023-03-23T19:30:14.237Z,38.66
2023-03-23T19:32:19.080Z,38.58
2023-03-23T19:34:25.069Z,38.87
2023-03-23T19:36:33.057Z,38.84
2023-03-23T19:38:38.042Z,38.97
2023-03-23T19:40:42.988Z,39.08
2023-03-23T19:42:48.085Z,39.09
2023-03-23T19:44:52.904Z,39.04
2023-03-23T19:46:58.029Z,38.80
2023-03-23T19:49:04.091Z,39.12
2023-03-23T19:51:10.561Z,38.81
2023-03-23T19:53:19.215Z,38.93
2023-03-23T19:55:24.425Z,38.98
2023-03-23T19:57:30.248Z,39.34
2023-03-23T19:59:35.372Z,39.38
2023-03-23T20:01:41.213Z,39.42
2023-03-23T20:03:47.915Z,39.17
2023-03-23T20:05:52.849Z,39.36
2023-03-23T20:07:58.369Z,39.45
2023-03-23T20:10:06.321Z,39.09
2023-03-23T20:12:13.487Z,39.08
2023-03-23T20:14:18.431Z,39.55
2023-03-23T20:16:23.721Z,39.47
2023-03-23T20:18:29.877Z,39.56
2023-03-23T20:20:36.757Z,39.54
2023-03-23T20:22:41.975Z,39.65
2023-03-23T20:24:49.403Z,39.29
2023-03-23T20:26:57.253Z,39.46
2023-03-23T20:29:03.128Z,39.37
2023-03-23T20:31:19.886Z,39.64
2023-03-23T20:33:30.637Z,39.37
2023-03-23T20:35:35.541Z,39.48
2023-03-23T20:37:42.326Z,39.87
2023-03-23T20:39:48.723Z,39.67
2023-03-23T20:41:58.922Z,39.61
2023-03-23T20:44:03.816Z,39.92
2023-03-23T20:46:10.952Z,39.63
2023-03-23T20:48:15.895Z,39.67
2023-03-23T20:50:20.895Z,39.79
2023-03-23T20:52:26.488Z,39.91
2023-03-23T20:54:31.798Z,39.75
2023-03-23T20:56:40.053Z,40.02
2023-03-23T20:58:47.990Z,40.22
2023-03-23T21:00:57.242Z,40.10
2023-03-23T21:03:02.163Z,39.92
2023-03-23T21:05:07.413Z,40.10
2023-03-23T21:07:12.949Z,39.98
2023-03-23T21:09:19.375Z,40.18
2023-03-23T21:11:27.003Z,40.07
2023-03-23T21:13:31.914Z,40.05
2023-03-23T21:15:40.145Z,39.86
2023-03-23T21:17:44.939Z,40.18
2023-03-23T21:19:50.177Z,40.19
2023-03-23T21:21:57.292Z,40.25
2023-03-23T21:24:02.974Z,39.92
2023-03-23T21:26:10.233Z,39.94
2023-03-23T21:28:17.463Z,40.30
2023-03-23T21:30:22.967Z,40.44
2023-03-23T21:32:31.230Z,40.18
2023-03-23T21:34:36.314Z,40.08
2023-03-23T21:36:41.340Z,40.22
2023-03-23T21:38:46.501Z,40.66
2023-03-23T21:40:51.389Z,40.57
2023-03-23T21:42:56.197Z,40.45
2023-03-23T21:45:02.842Z,40.64
2023-03-23T21:47:07.916Z,40.60
2023-03-23T21:49:17.292Z,40.61
2023-03-23T21:51:25.577Z,40.45
2023-03-23T21:53:31.081Z,40.76
2023-03-23T21:55:36.466Z,40.82
2023-03-23T21:57:42.578Z,40.89
2023-03-23T21:59:47.457Z,41.07
2023-03-23T22:01:52.429Z,41.09
2023-03-23T22:03:57.548Z,40.80
2023-03-23T22:06:13.286Z,41.25
2023-03-23T22:08:18.061Z,41.02
2023-03-23T22:10:23.179Z,41.37
2023-03-23T22:12:28.916Z,41.06
2023-03-23T22:14:33.739Z,41.76
2023-03-23T22:16:38.789Z,41.38
2023-03-23T22:18:45.310Z,41.41
2023-03-23T22:20:50.088Z,41.61
2023-03-23T22:22:57.741Z,41.49
2023-03-23T22:25:02.660Z,41.83
2023-03-23T22:27:08.004Z,41.94
2023-03-23T22:29:15.087Z,41.88
2023-03-23T22:31:23.807Z,41.92
2023-03-23T22:33:29.292Z,41.81
2023-03-23T22:35:34.249Z,41.94
2023-03-23T22:37:39.194Z,42.08
2023-03-23T22:39:46.673Z,41.78
2023-03-23T22:41:51.498Z,42.23
2023-03-23T22:43:57.269Z,41.88
2023-03-23T22:46:02.420Z,42.16
2023-03-23T22:48:08.511Z,42.13
2023-03-23T22:50:14.013Z,42.16
2023-03-23T22:52:18.990Z,42.21
2023-03-23T22:54:23.802Z,42.01
2023-03-23T22:56:31.813Z,42.26
2023-03-23T22:58:36.748Z,42.44
2023-03-23T23:00:43.282Z,42.11
2023-03-23T23:02:49.224Z,42.08
2023-03-23T23:04:54.717Z,42.35
2023-03-23T23:07:11.998Z,42.00
2023-03-23T23:09:19.283Z,42.23
2023-03-23T23:11:26.128Z,42.06
2023-03-23T23:13:34.298Z,42.08
2023-03-23T23:15:40.390Z,42.11
2023-03-23T23:17:45.458Z,42.28
2023-03-23T23:19:50.467Z,42.46
2023-03-23T23:21:55.900Z,42.43
2023-03-23T23:24:01.253Z,42.36
2023-03-23T23:26:06.876Z,42.14
2023-03-23T23:28:11.678Z,42.22
2023-03-23T23:30:19.574Z,42.58
2023-03-23T23:32:24.463Z,42.16
2023-03-23T23:34:29.332Z,42.66
2023-03-23T23:36:34.999Z,42.58
2023-03-23T23:38:39.892Z,42.46
2023-03-23T23:40:46.286Z,42.54
2023-03-23T23:42:54.463Z,42.34
2023-03-23T23:44:59.349Z,42.39
2023-03-23T23:47:07.124Z,42.73
2023-03-23T23:49:11.926Z,42.20
2023-03-23T23:51:17.741Z,42.29
2023-03-23T23:53:23.233Z,42.55
2023-03-23T23:55:29.305Z,42.47
2023-03-23T23:57:34.102Z,42.41
2023-03-23T23:59:39.036Z,42.64
